createdAt,value
2022-10-28T00:00:07.827Z,132.68
2022-10-28T00:02:34.367Z,130.35
2022-10-28T00:05:00.960Z,135.77
2022-10-28T00:07:28.326Z,133.38
2022-10-28T00:09:54.897Z,135.07
2022-10-28T00:12:21.443Z,133.68
2022-10-28T00:14:47.967Z,141.90
2022-10-28T00:17:14.560Z,134.63
2022-10-28T00:19:41.045Z,136.95
2022-10-28T00:22:07.542Z,140.45
2022-10-28T00:24:34.111Z,144.55
2022-10-28T00:27:00.616Z,153.05
2022-10-28T00:29:27.126Z,155.27
2022-10-28T00:31:53.685Z,151.68
2022-10-28T00:34:23.882Z,155.45
2022-10-28T00:36:50.370Z,152.45
2022-10-28T00:39:22.723Z,156.10
2022-10-28T00:41:54.493Z,165.45
2022-10-28T00:44:40.042Z,162.25
2022-10-28T00:47:18.011Z,163.70
2022-10-28T00:49:47.841Z,163.70
2022-10-28T00:52:21.066Z,169.63
2022-10-28T00:54:49.006Z,173.93
2022-10-28T00:57:18.490Z,177.32
2022-10-28T00:59:48.951Z,180.25
2022-10-28T01:02:16.372Z,179.90
2022-10-28T01:04:44.163Z,183.27
2022-10-28T01:07:11.248Z,182.18
2022-10-28T01:09:40.319Z,186.90
2022-10-28T01:12:42.026Z,189.25
2022-10-28T01:15:32.628Z,178.63
2022-10-28T01:18:26.029Z,181.07
2022-10-28T01:21:12.749Z,184.68
2022-10-28T01:24:05.567Z,197.65
2022-10-28T01:26:56.982Z,201.52
2022-10-28T01:30:04.946Z,195.93
2022-10-28T01:33:03.586Z,196.20
2022-10-28T01:35:41.001Z,201.13
2022-10-28T01:38:30.687Z,209.98
2022-10-28T01:41:03.047Z,218.48
2022-10-28T01:43:37.453Z,216.57
2022-10-28T01:46:05.680Z,224.48
2022-10-28T01:48:43.515Z,226.52
2022-10-28T01:51:25.458Z,224.07
2022-10-28T01:53:55.419Z,228.07
2022-10-28T01:56:27.086Z,235.27
2022-10-28T01:58:56.770Z,223.98
2022-10-28T02:01:25.127Z,225.18
2022-10-28T02:03:52.217Z,244.18
2022-10-28T02:06:22.591Z,240.02
2022-10-28T02:09:02.763Z,242.38
2022-10-28T02:11:53.881Z,238.20
2022-10-28T02:14:31.661Z,231.90
2022-10-28T02:17:14.886Z,235.27
2022-10-28T02:19:47.036Z,232.73
2022-10-28T02:22:25.006Z,237.60
2022-10-28T02:25:06.126Z,243.40
2022-10-28T02:27:50.901Z,240.90
2022-10-28T02:30:23.028Z,239.05
2022-10-28T02:32:56.143Z,252.30
2022-10-28T02:35:31.265Z,251.23
2022-10-28T02:38:01.600Z,252.85
2022-10-28T02:40:30.855Z,258.63
2022-10-28T02:43:04.358Z,266.45
2022-10-28T02:45:43.139Z,267.52
2022-10-28T02:48:40.589Z,258.45
2022-10-28T02:51:11.890Z,263.88
2022-10-28T02:54:07.481Z,271.75
2022-10-28T02:56:40.072Z,258.42
2022-10-28T02:59:14.307Z,261.38
2022-10-28T03:01:40.893Z,253.32
2022-10-28T03:04:07.494Z,257.15
2022-10-28T03:06:34.008Z,270.45
2022-10-28T03:09:00.521Z,267.08
2022-10-28T03:11:27.160Z,263.25
2022-10-28T03:13:53.723Z,271.23
2022-10-28T03:16:20.198Z,269.67
2022-10-28T03:18:46.690Z,279.25
2022-10-28T03:21:13.219Z,271.60
2022-10-28T03:23:40.181Z,273.48
2022-10-28T03:26:06.660Z,273.67
2022-10-28T03:28:33.200Z,272.13
2022-10-28T03:30:59.694Z,276.70
2022-10-28T03:33:26.267Z,278.40
2022-10-28T03:35:52.765Z,282.58
2022-10-28T03:38:19.292Z,286.65
2022-10-28T03:40:48.946Z,282.92
2022-10-28T03:43:15.771Z,282.77
2022-10-28T03:45:42.334Z,281.25
2022-10-28T03:48:09.118Z,285.20
2022-10-28T03:50:35.978Z,278.27
2022-10-28T03:53:02.497Z,284.83
2022-10-28T03:55:28.996Z,281.45
2022-10-28T03:57:55.672Z,292.20
2022-10-28T04:00:22.383Z,291.77
2022-10-28T04:02:53.500Z,287.08
2022-10-28T04:05:20.624Z,290.35
2022-10-28T04:07:47.543Z,294.85
2022-10-28T04:10:14.703Z,291.00
2022-10-28T04:12:41.195Z,287.67
2022-10-28T04:15:07.975Z,291.83
2022-10-28T04:17:34.774Z,294.23
2022-10-28T04:20:01.268Z,295.55
2022-10-28T04:22:27.789Z,297.92
2022-10-28T04:24:54.709Z,301.92
2022-10-28T04:27:21.687Z,300.42
2022-10-28T04:29:48.169Z,300.00
2022-10-28T04:32:14.651Z,289.00
2022-10-28T04:34:41.188Z,293.65
2022-10-28T04:37:07.684Z,297.25
2022-10-28T04:39:34.173Z,305.85
2022-10-28T04:42:00.670Z,302.85
2022-10-28T04:44:27.163Z,291.85
2022-10-28T04:46:56.397Z,299.67
2022-10-28T04:49:22.910Z,294.65
2022-10-28T04:51:49.408Z,291.05
2022-10-28T04:54:15.906Z,290.15
2022-10-28T04:56:42.426Z,293.88
2022-10-28T04:59:08.938Z,288.40
2022-10-28T05:01:36.190Z,288.25
2022-10-28T05:04:03.150Z,292.27
2022-10-28T05:06:29.638Z,287.55
2022-10-28T05:08:56.223Z,290.27
2022-10-28T05:11:22.804Z,291.33
2022-10-28T05:13:49.337Z,291.50
2022-10-28T05:16:15.832Z,284.42
2022-10-28T05:18:42.349Z,278.33
2022-10-28T05:21:08.929Z,284.45
2022-10-28T05:23:35.503Z,285.02
2022-10-28T05:26:02.120Z,283.42
2022-10-28T05:28:28.678Z,277.45
2022-10-28T05:30:55.176Z,272.25
2022-10-28T05:33:21.929Z,276.08
2022-10-28T05:35:48.527Z,277.35
2022-10-28T05:38:15.470Z,283.73
2022-10-28T05:40:42.127Z,272.95
2022-10-28T05:43:09.920Z,269.98
2022-10-28T05:45:37.103Z,259.33
2022-10-28T05:48:03.817Z,260.25
2022-10-28T05:50:30.346Z,262.25
2022-10-28T05:52:57.712Z,260.48
2022-10-28T05:55:28.313Z,264.50
2022-10-28T05:57:56.280Z,256.77
2022-10-28T06:00:25.948Z,257.33
2022-10-28T06:02:52.735Z,256.48
2022-10-28T06:05:20.400Z,256.15
2022-10-28T06:07:47.089Z,245.82
2022-10-28T06:10:13.598Z,245.25
2022-10-28T06:12:38.581Z,234.93
2022-10-28T06:15:05.904Z,234.85
2022-10-28T06:17:32.524Z,228.25
2022-10-28T06:19:59.050Z,219.00
2022-10-28T06:22:25.690Z,219.45
2022-10-28T06:24:52.172Z,218.82
2022-10-28T06:27:18.689Z,211.90
2022-10-28T06:29:46.605Z,206.65
2022-10-28T06:32:13.128Z,206.30
2022-10-28T06:34:39.647Z,203.20
2022-10-28T06:37:06.181Z,206.45
2022-10-28T06:39:32.972Z,205.82
2022-10-28T06:41:59.640Z,209.73
2022-10-28T06:44:26.242Z,199.10
2022-10-28T06:46:54.290Z,205.85
2022-10-28T06:49:20.893Z,202.13
2022-10-28T06:51:47.425Z,207.63
2022-10-28T06:54:13.917Z,199.10
2022-10-28T06:56:40.462Z,202.77
2022-10-28T06:59:07.706Z,202.45
2022-10-28T07:01:34.394Z,204.73
2022-10-28T07:04:00.994Z,194.80
2022-10-28T07:06:27.538Z,212.02
2022-10-28T07:08:54.027Z,199.00
2022-10-28T07:11:20.560Z,213.25
2022-10-28T07:13:48.956Z,213.75
2022-10-28T07:16:15.758Z,213.43
2022-10-28T07:18:42.259Z,219.13
2022-10-28T07:21:08.753Z,212.30
2022-10-28T07:23:35.317Z,216.07
2022-10-28T07:26:02.155Z,212.32
2022-10-28T07:28:28.947Z,222.82
2022-10-28T07:30:55.501Z,226.38
2022-10-28T07:33:22.082Z,208.35
2022-10-28T07:35:48.657Z,210.48
2022-10-28T07:38:15.556Z,204.65
2022-10-28T07:40:42.252Z,202.18
2022-10-28T07:43:08.820Z,203.27
2022-10-28T07:45:36.076Z,194.68
2022-10-28T07:48:03.505Z,196.98
2022-10-28T07:50:30.015Z,189.25
2022-10-28T07:52:56.840Z,193.68
2022-10-28T07:55:23.520Z,193.38
2022-10-28T07:57:50.083Z,190.02
2022-10-28T08:00:16.758Z,194.10
2022-10-28T08:02:43.380Z,192.93
2022-10-28T08:05:10.044Z,195.70
2022-10-28T08:07:38.759Z,194.02
2022-10-28T08:10:06.675Z,194.98
2022-10-28T08:12:33.248Z,197.30
2022-10-28T08:14:59.800Z,202.98
2022-10-28T08:17:26.341Z,204.82
2022-10-28T08:19:52.833Z,195.43
2022-10-28T08:22:19.347Z,208.30
2022-10-28T08:24:45.830Z,218.45
2022-10-28T08:27:12.418Z,216.93
2022-10-28T08:29:38.896Z,225.40
2022-10-28T08:32:08.569Z,222.23
2022-10-28T08:34:37.966Z,238.23
2022-10-28T08:37:07.543Z,225.57
2022-10-28T08:39:34.286Z,219.80
2022-10-28T08:42:19.191Z,202.73
2022-10-28T08:47:28.180Z,162.43
2022-10-28T08:50:12.948Z,164.88
2022-10-28T08:52:53.177Z,163.15
2022-10-28T08:55:36.531Z,166.18
2022-10-28T08:58:11.828Z,163.75
2022-10-28T09:00:40.032Z,174.65
2022-10-28T09:03:16.729Z,182.68
2022-10-28T09:05:47.906Z,171.00
2022-10-28T09:08:21.802Z,178.63
2022-10-28T09:11:31.029Z,197.88
2022-10-28T09:14:09.859Z,175.98
2022-10-28T09:16:49.969Z,178.88
2022-10-28T09:19:16.408Z,192.93
2022-10-28T09:21:58.180Z,191.18
2022-10-28T09:24:38.485Z,184.18
2022-10-28T09:27:30.264Z,194.82
2022-10-28T09:30:17.558Z,182.13
2022-10-28T09:32:57.481Z,185.68
2022-10-28T09:35:27.178Z,181.52
2022-10-28T09:38:20.127Z,196.05
2022-10-28T09:40:55.333Z,189.85
2022-10-28T09:43:28.556Z,199.02
2022-10-28T09:46:02.005Z,210.40
2022-10-28T09:48:33.037Z,226.60
2022-10-28T09:51:00.791Z,250.48
2022-10-28T09:53:42.790Z,262.27
2022-10-28T09:56:09.788Z,241.57
2022-10-28T09:58:40.314Z,240.77
2022-10-28T10:01:06.867Z,226.50
2022-10-28T10:03:33.402Z,268.25
2022-10-28T10:06:09.741Z,285.02
2022-10-28T10:08:37.530Z,275.13
2022-10-28T10:11:15.150Z,275.27
2022-10-28T10:13:43.381Z,261.75
2022-10-28T10:16:18.025Z,254.10
2022-10-28T10:18:50.375Z,243.38
2022-10-28T10:21:20.151Z,239.15
2022-10-28T10:23:46.645Z,241.32
2022-10-28T10:26:15.674Z,242.25
2022-10-28T10:28:51.878Z,247.85
2022-10-28T10:31:22.109Z,242.40
2022-10-28T10:33:51.980Z,251.60
2022-10-28T10:36:31.500Z,274.17
2022-10-28T10:39:02.775Z,299.30
2022-10-28T10:41:41.152Z,329.33
2022-10-28T10:44:22.899Z,326.15
2022-10-28T10:46:55.587Z,312.80
2022-10-28T10:49:22.138Z,309.45
2022-10-28T10:51:57.832Z,312.77
2022-10-28T10:54:31.684Z,292.88
2022-10-28T10:57:10.021Z,286.77
2022-10-28T10:59:37.864Z,292.02
2022-10-28T11:02:19.969Z,302.20
2022-10-28T11:04:52.109Z,285.42
2022-10-28T11:07:18.605Z,286.77
2022-10-28T11:09:48.577Z,295.45
2022-10-28T11:12:24.463Z,305.13
2022-10-28T11:15:02.562Z,296.65
2022-10-28T11:20:07.641Z,275.08
2022-10-28T11:22:52.434Z,278.88
2022-10-28T11:25:48.638Z,276.90
2022-10-28T11:28:24.263Z,279.77
2022-10-28T11:31:01.489Z,297.63
2022-10-28T11:33:45.805Z,299.23
2022-10-28T11:36:21.923Z,296.50
2022-10-28T11:39:12.505Z,311.92
2022-10-28T11:42:01.570Z,295.67
2022-10-28T11:44:34.754Z,293.10
2022-10-28T11:47:25.776Z,294.92
2022-10-28T11:50:35.270Z,286.70
2022-10-28T11:53:20.258Z,272.63
2022-10-28T11:56:05.308Z,281.85
2022-10-28T11:59:14.117Z,282.95
2022-10-28T12:01:55.380Z,282.40
2022-10-28T12:04:46.645Z,278.77
2022-10-28T12:07:31.815Z,303.63
2022-10-28T12:10:36.020Z,310.92
2022-10-28T12:13:08.627Z,304.88
2022-10-28T12:15:45.669Z,300.60
2022-10-28T12:18:12.379Z,295.95
2022-10-28T12:20:46.141Z,320.90
2022-10-28T12:23:16.984Z,320.85
2022-10-28T12:25:46.596Z,306.63
2022-10-28T12:28:37.562Z,294.17
2022-10-28T12:31:07.611Z,299.00
2022-10-28T12:33:44.510Z,306.70
2022-10-28T12:36:37.500Z,305.42
2022-10-28T12:39:32.469Z,293.15
2022-10-28T12:42:02.558Z,284.23
2022-10-28T12:44:31.708Z,289.70
2022-10-28T12:47:09.189Z,297.55
2022-10-28T12:49:38.547Z,290.77
2022-10-28T12:52:26.857Z,287.27
2022-10-28T12:57:52.110Z,262.27
2022-10-28T13:00:31.977Z,271.30
2022-10-28T13:03:02.618Z,278.10
2022-10-28T13:05:53.369Z,277.13
2022-10-28T13:08:41.491Z,275.70
2022-10-28T13:11:32.675Z,287.42
2022-10-28T13:14:05.521Z,272.48
2022-10-28T13:17:00.997Z,270.80
2022-10-28T13:19:52.090Z,275.63
2022-10-28T13:22:32.715Z,277.98
2022-10-28T13:25:14.397Z,292.10
2022-10-28T13:27:41.108Z,287.25
2022-10-28T13:30:17.746Z,292.17
2022-10-28T13:32:44.560Z,288.20
2022-10-28T13:35:24.817Z,289.83
2022-10-28T13:37:54.627Z,292.42
2022-10-28T13:40:41.664Z,287.45
2022-10-28T13:43:40.790Z,288.80
2022-10-28T13:46:07.352Z,270.60
2022-10-28T13:48:43.814Z,284.08
2022-10-28T13:51:10.329Z,281.70
2022-10-28T13:53:45.673Z,294.58
2022-10-28T13:56:33.786Z,279.25
2022-10-28T13:59:17.764Z,281.90
2022-10-28T14:01:56.703Z,269.50
2022-10-28T14:04:31.885Z,262.70
2022-10-28T14:07:11.351Z,279.83
2022-10-28T14:09:41.385Z,273.70
2022-10-28T14:12:13.763Z,273.08
2022-10-28T14:14:53.253Z,273.10
2022-10-28T14:17:23.365Z,274.27
2022-10-28T14:19:51.902Z,270.17
2022-10-28T14:22:34.058Z,273.38
2022-10-28T14:25:00.882Z,267.52
2022-10-28T14:27:42.678Z,272.20
2022-10-28T14:30:15.800Z,260.45
2022-10-28T14:32:42.300Z,264.45
2022-10-28T14:35:14.785Z,280.48
2022-10-28T14:38:06.203Z,281.02
2022-10-28T14:40:33.001Z,268.85
2022-10-28T14:43:06.101Z,283.48
2022-10-28T14:45:59.403Z,295.45
2022-10-28T14:48:53.653Z,263.05
2022-10-28T14:51:24.640Z,254.80
2022-10-28T14:53:56.496Z,263.17
2022-10-28T14:56:26.789Z,259.17
2022-10-28T14:58:57.484Z,267.20
2022-10-28T15:01:27.044Z,268.75
2022-10-28T15:04:01.263Z,271.13
2022-10-28T15:06:30.741Z,263.88
2022-10-28T15:09:07.284Z,263.05
2022-10-28T15:11:34.542Z,260.33
2022-10-28T15:14:24.769Z,268.95
2022-10-28T15:16:51.686Z,250.63
2022-10-28T15:19:24.406Z,258.70
2022-10-28T15:22:15.244Z,269.67
2022-10-28T15:24:46.199Z,248.85
2022-10-28T15:27:14.381Z,251.02
2022-10-28T15:29:42.706Z,283.00
2022-10-28T15:32:14.208Z,268.00
2022-10-28T15:34:41.680Z,269.05
2022-10-28T15:37:08.605Z,271.02
2022-10-28T15:39:36.054Z,276.13
2022-10-28T15:42:03.368Z,277.55
2022-10-28T15:44:38.419Z,279.63
2022-10-28T15:47:15.262Z,270.55
2022-10-28T15:49:41.828Z,261.88
2022-10-28T15:52:17.447Z,268.00
2022-10-28T15:54:54.879Z,259.17
2022-10-28T15:57:29.200Z,256.20
2022-10-28T16:00:17.351Z,254.43
2022-10-28T16:02:45.939Z,236.38
2022-10-28T16:05:43.836Z,241.93
2022-10-28T16:08:23.162Z,227.48
2022-10-28T16:10:52.674Z,229.98
2022-10-28T16:13:33.295Z,238.38
2022-10-28T16:16:06.233Z,238.02
2022-10-28T16:18:39.925Z,235.02
2022-10-28T16:21:07.125Z,225.57
2022-10-28T16:23:42.922Z,224.95
2022-10-28T16:26:12.514Z,221.75
2022-10-28T16:28:42.736Z,226.55
2022-10-28T16:31:16.285Z,224.88
2022-10-28T16:33:43.091Z,220.55
2022-10-28T16:36:10.529Z,219.52
2022-10-28T16:38:37.532Z,233.13
2022-10-28T16:41:05.817Z,225.90
2022-10-28T16:43:32.734Z,222.68
2022-10-28T16:46:00.849Z,231.98
2022-10-28T16:48:29.632Z,217.98
2022-10-28T16:51:01.703Z,214.18
2022-10-28T16:53:28.737Z,214.23
2022-10-28T16:55:58.964Z,216.65
2022-10-28T16:58:27.031Z,211.57
2022-10-28T17:00:54.775Z,212.65
2022-10-28T17:03:22.053Z,215.20
2022-10-28T17:05:48.708Z,215.90
2022-10-28T17:08:15.172Z,219.30
2022-10-28T17:10:42.894Z,220.20
2022-10-28T17:13:16.027Z,212.98
2022-10-28T17:15:43.621Z,212.75
2022-10-28T17:18:11.746Z,216.30
2022-10-28T17:20:38.302Z,215.93
2022-10-28T17:23:05.594Z,212.50
2022-10-28T17:25:32.199Z,207.02
2022-10-28T17:27:58.874Z,208.27
2022-10-28T17:30:25.505Z,211.30
2022-10-28T17:32:54.389Z,212.50
2022-10-28T17:35:22.343Z,211.57
2022-10-28T17:37:49.341Z,220.35
2022-10-28T17:40:16.237Z,210.25
2022-10-28T17:42:42.700Z,213.93
2022-10-28T17:45:10.245Z,211.60
2022-10-28T17:47:36.778Z,216.00
2022-10-28T17:50:03.592Z,222.43
2022-10-28T17:52:32.981Z,215.05
2022-10-28T17:55:04.005Z,204.70
2022-10-28T17:57:30.700Z,217.13
2022-10-28T17:59:57.217Z,213.02
2022-10-28T18:02:23.868Z,214.23
2022-10-28T18:04:50.563Z,213.25
2022-10-28T18:07:17.185Z,211.80
2022-10-28T18:09:43.905Z,214.15
2022-10-28T18:12:12.482Z,205.93
2022-10-28T18:14:39.414Z,200.77
2022-10-28T18:17:05.969Z,201.40
2022-10-28T18:19:32.478Z,197.82
2022-10-28T18:21:59.187Z,199.93
2022-10-28T18:24:26.183Z,200.45
2022-10-28T18:26:54.391Z,210.13
2022-10-28T18:29:20.885Z,203.75
2022-10-28T18:31:47.382Z,203.52
2022-10-28T18:34:14.046Z,200.60
2022-10-28T18:36:40.704Z,192.73
2022-10-28T18:39:07.999Z,200.00
2022-10-28T18:41:38.293Z,195.27
2022-10-28T18:44:05.592Z,198.55
2022-10-28T18:46:35.139Z,195.95
2022-10-28T18:49:02.247Z,200.82
2022-10-28T18:51:28.996Z,199.80
2022-10-28T18:53:56.563Z,206.68
2022-10-28T18:56:25.929Z,200.75
2022-10-28T18:58:55.126Z,200.68
2022-10-28T19:01:27.190Z,202.85
2022-10-28T19:03:55.790Z,205.13
2022-10-28T19:06:23.543Z,195.98
2022-10-28T19:08:55.236Z,196.00
2022-10-28T19:11:25.713Z,193.80
2022-10-28T19:13:52.211Z,200.27
2022-10-28T19:16:18.710Z,206.48
2022-10-28T19:18:45.260Z,207.43
2022-10-28T19:21:16.995Z,205.13
2022-10-28T19:23:43.952Z,193.70
2022-10-28T19:26:11.406Z,200.23
2022-10-28T19:28:39.586Z,199.52
2022-10-28T19:31:09.039Z,208.65
2022-10-28T19:33:38.258Z,205.88
2022-10-28T19:36:26.365Z,194.10
2022-10-28T19:38:54.008Z,186.98
2022-10-28T19:41:23.460Z,192.52
2022-10-28T19:43:57.792Z,184.43
2022-10-28T19:46:26.286Z,188.93
2022-10-28T19:48:54.713Z,202.85
2022-10-28T19:51:24.595Z,196.68
2022-10-28T19:53:53.621Z,187.88
2022-10-28T19:56:20.873Z,188.15
2022-10-28T19:58:53.345Z,186.23
2022-10-28T20:01:21.839Z,183.98
2022-10-28T20:03:50.858Z,187.30
2022-10-28T20:06:19.083Z,187.63
2022-10-28T20:08:46.734Z,198.02
2022-10-28T20:11:25.855Z,190.82
2022-10-28T20:13:55.705Z,180.88
2022-10-28T20:16:22.920Z,180.38
2022-10-28T20:18:49.531Z,178.35
2022-10-28T20:21:21.411Z,172.70
2022-10-28T20:26:23.381Z,190.10
2022-10-28T20:28:50.491Z,188.35
2022-10-28T20:31:22.575Z,196.18
2022-10-28T20:33:58.484Z,200.82
2022-10-28T20:36:29.695Z,193.80
2022-10-28T20:38:58.294Z,195.13
2022-10-28T20:41:26.626Z,194.95
2022-10-28T20:43:54.317Z,203.02
2022-10-28T20:46:22.611Z,197.32
2022-10-28T20:48:49.179Z,198.75
2022-10-28T20:51:15.951Z,199.95
2022-10-28T20:53:42.846Z,194.20
2022-10-28T20:56:16.347Z,207.90
2022-10-28T20:58:43.000Z,200.82
2022-10-28T21:01:18.934Z,196.70
2022-10-28T21:03:46.727Z,187.15
2022-10-28T21:06:15.621Z,188.75
2022-10-28T21:08:43.458Z,188.90
2022-10-28T21:11:13.154Z,196.23
2022-10-28T21:13:40.077Z,192.68
2022-10-28T21:16:09.111Z,193.82
2022-10-28T21:18:37.241Z,197.75
2022-10-28T21:21:04.642Z,190.38
2022-10-28T21:23:31.476Z,188.90
2022-10-28T21:26:00.612Z,198.40
2022-10-28T21:28:28.690Z,206.45
2022-10-28T21:31:02.893Z,188.48
2022-10-28T21:33:29.482Z,190.65
2022-10-28T21:36:00.742Z,192.13
2022-10-28T21:38:28.818Z,189.60
2022-10-28T21:41:03.868Z,190.27
2022-10-28T21:43:32.781Z,184.85
2022-10-28T21:45:59.740Z,189.45
2022-10-28T21:48:28.744Z,187.60
2022-10-28T21:50:57.458Z,188.25
2022-10-28T21:53:24.717Z,187.95
2022-10-28T21:55:53.084Z,197.90
2022-10-28T21:58:20.508Z,193.63
2022-10-28T22:00:47.087Z,190.35
2022-10-28T22:03:13.717Z,188.13
2022-10-28T22:05:40.329Z,181.75
2022-10-28T22:08:06.852Z,188.45
2022-10-28T22:10:33.361Z,187.23
2022-10-28T22:12:59.858Z,192.10
2022-10-28T22:15:26.331Z,186.48
2022-10-28T22:17:53.004Z,188.70
2022-10-28T22:20:19.799Z,196.48
2022-10-28T22:22:46.367Z,198.48
2022-10-28T22:25:12.852Z,188.30
2022-10-28T22:27:39.393Z,188.93
2022-10-28T22:30:06.342Z,193.18
2022-10-28T22:32:32.844Z,197.20
2022-10-28T22:34:59.336Z,196.40
2022-10-28T22:37:25.846Z,195.00
2022-10-28T22:39:52.325Z,195.15
2022-10-28T22:42:18.887Z,190.23
2022-10-28T22:44:45.388Z,195.80
2022-10-28T22:47:11.903Z,191.38
2022-10-28T22:49:38.426Z,188.50
2022-10-28T22:52:05.113Z,191.05
2022-10-28T22:54:31.649Z,194.05
2022-10-28T22:56:58.165Z,196.02
2022-10-28T22:59:25.579Z,195.27
2022-10-28T23:01:52.690Z,189.68
2022-10-28T23:04:19.276Z,200.20
2022-10-28T23:06:45.778Z,195.00
2022-10-28T23:09:12.260Z,207.85
2022-10-28T23:11:38.807Z,188.90
2022-10-28T23:14:05.381Z,183.85
2022-10-28T23:16:31.878Z,183.93
2022-10-28T23:19:00.704Z,184.35
2022-10-28T23:21:27.410Z,191.82
2022-10-28T23:23:56.138Z,181.95
2022-10-28T23:26:23.394Z,181.63
2022-10-28T23:28:52.733Z,180.93
2022-10-28T23:31:20.418Z,172.93
2022-10-28T23:33:47.601Z,183.35
2022-10-28T23:36:15.303Z,190.57
2022-10-28T23:38:42.330Z,187.30
2022-10-28T23:41:11.382Z,181.57
2022-10-28T23:43:37.960Z,180.25
2022-10-28T23:46:04.884Z,184.80
2022-10-28T23:48:31.547Z,180.88
2022-10-28T23:50:58.056Z,179.30
2022-10-28T23:53:24.900Z,187.30
2022-10-28T23:55:52.257Z,185.13
2022-10-28T23:58:20.752Z,183.02
